Marble Falls' Hourly Summary for Wednesday, May 16, 2018
Hour Temp
(f)
RH
(%)
Solar Rad.
(MJ/m2)
Rainfall
(in)
Wind
(mph)
5/16/2018 12:00 AM 72 69 0 0 11.29
5/16/2018 1:00 AM 72 82 0 0 6.62
5/16/2018 2:00 AM 69 88 0 0 5.9
5/16/2018 3:00 AM 69 88 0 0 5.9
5/16/2018 4:00 AM 69 90 0 0 2.18
5/16/2018 5:00 AM 67 93 0 0 1.57
5/16/2018 6:00 AM 67 93 0 0 3.51
5/16/2018 7:00 AM 67 93 0.11 0 3.69
5/16/2018 8:00 AM 69 89 0.68 0 3.69
5/16/2018 9:00 AM 73 81 1.53 0 3.6
5/16/2018 10:00 AM 79 72 2.37 0 1.62
5/16/2018 11:00 AM 81 57 2.9 0 4.76
5/16/2018 12:00 PM 81 55 3.26 0 4.76
5/16/2018 1:00 PM 84 49 3.39 0 2.56
5/16/2018 2:00 PM 87 48 3.39 0 1.65
5/16/2018 3:00 PM 89 37 3.01 0 2.66
5/16/2018 4:00 PM 90 35 3.01 0 3.15
5/16/2018 5:00 PM 91 35 2.53 0 3.15
5/16/2018 6:00 PM 91 34 1.91 0 3.04
5/16/2018 7:00 PM 91 35 1.21 0 2.59
5/16/2018 8:00 PM 89 41 0.43 0 1.98
5/16/2018 9:00 PM 86 49 0.03 0 0.22
5/16/2018 10:00 PM 83 53 0 0 0.22
5/16/2018 11:00 PM 79 66 0 0 0.17
Data Summary 78 63 29.76 0.00 3.35